Time;durP1;ratioP1;P1;durP2;ratioP2;P2;SDS_P1;SDS_P2;PMS_P1;PMS_P2;Temp;Humidity;BMP_temperature;BMP_pressure;BME280_temperature;BME280_humidity;BME280_pressure;Samples;Min_cycle;Max_cycle;Signal;HPM_P1;HPM_P2
2021/05/06 00:09:28;;;;;;;4.20;2.07;;;;;;;5.09;55.23;98229.73;128513;1103;61934;-82
2021/05/06 00:33:27;;;;;;;3.93;1.80;;;;;;;4.65;55.83;98234.28;129152;1098;61976;-83
2021/05/06 00:37:05;;;;;;;7.80;2.60;;;;;;;4.60;56.16;98235.40;128961;1098;62000;-82
2021/05/06 01:00:27;;;;;;;6.10;1.90;;;;;;;4.23;56.48;98241.20;128788;1101;62083;-83
2021/05/06 01:07:20;;;;;;;5.73;1.73;;;;;;;4.32;56.41;98248.56;128441;1104;62283;-83
2021/05/06 01:10:42;;;;;;;8.00;3.07;;;;;;;4.36;56.22;98250.09;128496;1101;62029;-82
2021/05/06 01:13:47;;;;;;;;;;;;;;;;;;;;;
2021/05/06 01:17:33;;;;;;;5.83;1.73;;;;;;;4.49;56.41;98258.98;128729;1101;61937;-82
2021/05/06 01:20:35;;;;;;;5.13;1.90;;;;;;;4.52;55.81;98258.82;128836;1101;62888;-82
2021/05/06 01:24:06;;;;;;;4.53;2.00;;;;;;;4.49;56.18;98260.78;128797;1101;62051;-83
2021/05/06 01:27:44;;;;;;;5.23;2.30;;;;;;;4.43;56.02;98267.28;128843;1101;61834;-82
2021/05/06 01:34:34;;;;;;;5.83;1.70;;;;;;;4.44;56.54;98271.63;129050;1098;61880;-82
2021/05/06 01:37:34;;;;;;;5.00;1.83;;;;;;;4.46;56.15;98276.84;129171;1098;62953;-82
2021/05/06 01:41:20;;;;;;;6.00;1.30;;;;;;;4.44;56.92;98271.63;128893;1099;61886;-82
2021/05/06 01:43:58;;;;;;;4.87;1.90;;;;;;;4.51;56.51;98274.75;128898;1098;62106;-83
2021/05/06 01:57:58;;;;;;;8.05;2.23;;;;;;;4.46;56.79;98266.27;128050;1104;62227;-83
2021/05/06 02:01:40;;;;;;;;;;;;;;;;;;;;;
2021/05/06 02:05:37;;;;;;;3.40;1.90;;;;;;;4.49;57.21;98271.36;128775;1101;61923;-83
2021/05/06 02:09:11;;;;;;;6.60;2.00;;;;;;;4.53;57.42;98264.95;128625;1101;61882;-82
2021/05/06 02:16:39;;;;;;;3.78;1.43;;;;;;;4.48;57.50;98274.95;127892;1107;62176;-82
2021/05/06 02:19:55;;;;;;;;;;;;;;;;;;;;;
2021/05/06 02:23:54;;;;;;;5.40;2.40;;;;;;;4.44;57.05;98282.20;127934;1107;61968;-82
2021/05/06 02:31:00;;;;;;;;;;;;;;;;;;;;;
2021/05/06 02:34:47;;;;;;;3.53;2.00;;;;;;;4.17;56.98;98281.20;127129;1111;61968;-82
2021/05/06 02:38:20;;;;;;;9.20;3.13;;;;;;;4.09;57.71;98286.08;127114;1111;62084;-83
2021/05/06 02:41:59;;;;;;;9.57;2.60;;;;;;;4.10;57.08;98282.50;127169;1111;61988;-83
2021/05/06 02:46:07;;;;;;;5.90;2.60;;;;;;;3.99;57.42;98291.88;127195;1111;61913;-84
2021/05/06 02:49:43;;;;;;;12.53;4.03;;;;;;;3.85;57.06;98289.19;127137;1111;62034;-82
2021/05/06 02:53:27;;;;;;;7.27;3.23;;;;;;;3.75;57.22;98296.80;127514;1108;62117;-83
2021/05/06 02:57:16;;;;;;;5.30;2.10;;;;;;;3.66;57.24;98294.66;127953;1107;62403;-83
2021/05/06 03:03:29;;;;;;;5.63;2.13;;;;;;;3.52;57.50;98292.80;127981;1107;61993;-84
2021/05/06 03:07:24;;;;;;;7.60;2.97;;;;;;;3.41;57.68;98297.80;128518;1102;63046;-83
2021/05/06 03:25:11;;;;;;;12.47;4.37;;;;;;;2.63;57.66;98311.70;128752;1101;62376;-83
2021/05/06 03:28:22;;;;;;;6.70;3.30;;;;;;;2.53;58.15;98311.30;128695;1101;62499;-82
2021/05/06 03:42:23;;;;;;;;;;;;;;;;;;;;;
2021/05/06 03:49:56;;;;;;;7.43;3.60;;;;;;;2.73;58.42;98330.51;128636;1101;62019;-83
2021/05/06 04:03:33;;;;;;;14.50;6.90;;;;;;;3.40;58.65;98333.06;128732;1101;62436;-83
2021/05/06 04:39:52;;;;;;;9.73;4.03;;;;;;;6.06;57.69;98334.81;128567;1101;62108;-83
2021/05/06 04:43:25;;;;;;;7.40;3.67;;;;;;;6.29;57.47;98338.58;128773;1101;62158;-83
2021/05/06 04:55:23;;;;;;;7.47;4.17;;;;;;;7.16;57.43;98337.98;128778;1101;62013;-83
2021/05/06 05:05:07;;;;;;;11.60;4.80;;;;;;;7.73;57.32;98340.98;128352;1104;62234;-82
2021/05/06 05:08:06;;;;;;;6.50;4.03;;;;;;;7.96;57.45;98344.64;128391;1104;62034;-83
2021/05/06 05:11:54;;;;;;;8.73;3.77;;;;;;;8.16;57.14;98340.52;128532;1101;62183;-82
2021/05/06 05:14:25;;;;;;;7.10;3.50;;;;;;;8.38;56.80;98335.33;128711;1101;61908;-82
2021/05/06 05:24:04;;;;;;;8.23;4.60;;;;;;;9.09;56.57;98338.80;128505;1101;62089;-83
2021/05/06 05:26:56;;;;;;;;;;;;;;;;;;;;;
2021/05/06 05:30:04;;;;;;;8.27;3.77;;;;;;;9.28;55.99;98340.88;128589;1101;62003;-83
2021/05/06 05:32:44;;;;;;;9.20;3.23;;;;;;;9.30;55.15;98341.63;128542;1101;62555;-82
2021/05/06 05:35:51;;;;;;;;;;;;;;;;;;;;;
2021/05/06 05:39:20;;;;;;;11.90;3.60;;;;;;;9.40;55.65;98339.08;128788;1100;62046;-82
2021/05/06 05:43:47;;;;;;;8.40;3.17;;;;;;;9.59;55.22;98343.80;128832;1100;62085;-80
2021/05/06 05:55:33;;;;;;;4.63;2.77;;;;;;;9.84;55.32;98338.20;128869;1099;61980;-83
2021/05/06 05:58:20;;;;;;;;;;;;;;;;;;;;;
2021/05/06 06:01:27;;;;;;;6.15;3.00;;;;;;;9.83;55.07;98336.52;128838;1100;61950;-84
2021/05/06 06:05:08;;;;;;;;;;;;;;;;;;;;;
2021/05/06 06:09:02;;;;;;;3.93;2.53;;;;;;;9.89;54.60;98338.69;128884;1099;62125;-83
2021/05/06 06:11:35;;;;;;;7.20;2.65;;;;;;;9.96;54.93;98342.55;128816;1100;61989;-83
2021/05/06 06:17:34;;;;;;;5.40;2.43;;;;;;;10.23;54.58;98334.14;129138;1098;61893;-83
2021/05/06 06:20:29;;;;;;;2.67;2.07;;;;;;;10.19;54.96;98332.69;129115;1098;61976;-83
2021/05/06 06:23:05;;;;;;;5.73;2.50;;;;;;;10.38;54.24;98326.72;128831;1100;62177;-82
2021/05/06 06:26:00;;;;;;;;;;;;;;;;;;;;;
2021/05/06 06:28:44;;;;;;;3.70;2.60;;;;;;;10.67;54.40;98323.42;128858;1098;61872;-82
2021/05/06 06:31:23;;;;;;;11.97;3.40;;;;;;;10.87;53.73;98327.08;128853;1099;61925;-84
2021/05/06 06:34:02;;;;;;;4.83;2.73;;;;;;;10.75;53.21;98313.81;128915;1098;61901;-83
2021/05/06 06:36:35;;;;;;;8.77;2.70;;;;;;;10.86;53.83;98330.73;129182;1098;62925;-83
2021/05/06 06:39:27;;;;;;;9.00;2.75;;;;;;;10.89;53.64;98322.48;129100;1098;62022;-83
2021/05/06 06:41:54;;;;;;;5.80;2.13;;;;;;;11.07;53.87;98321.75;129158;1098;61853;-82
2021/05/06 06:44:27;;;;;;;2.73;2.27;;;;;;;11.12;53.65;98315.15;128887;1099;61901;-83
2021/05/06 06:47:23;;;;;;;4.83;2.73;;;;;;;11.25;53.41;98310.44;128930;1098;61834;-85
2021/05/06 06:49:52;;;;;;;7.07;3.30;;;;;;;11.17;53.04;98305.77;128924;1099;61886;-84
2021/05/06 06:53:07;;;;;;;9.53;3.13;;;;;;;11.44;53.80;98307.85;128810;1099;62994;-83
2021/05/06 06:55:49;;;;;;;2.80;2.20;;;;;;;11.85;53.81;98301.57;128862;1101;62126;-83
2021/05/06 06:58:41;;;;;;;7.33;3.00;;;;;;;11.94;53.28;98302.56;129141;1098;61977;-84
2021/05/06 07:01:25;;;;;;;4.73;2.70;;;;;;;12.00;52.72;98302.02;128902;1098;61929;-84
2021/05/06 07:04:07;;;;;;;2.97;2.50;;;;;;;12.05;53.17;98290.91;128890;1098;61876;-84
2021/05/06 07:06:37;;;;;;;11.10;3.40;;;;;;;12.35;53.83;98300.67;128872;1098;62076;-83
2021/05/06 07:09:22;;;;;;;5.37;2.57;;;;;;;12.34;53.63;98299.83;128833;1100;61926;-84
2021/05/06 07:11:53;;;;;;;3.97;2.63;;;;;;;12.22;53.13;98311.64;128860;1098;61979;-84
2021/05/06 07:14:28;;;;;;;6.40;4.10;;;;;;;12.22;53.20;98310.80;128887;1098;62021;-84
2021/05/06 07:17:04;;;;;;;5.17;3.40;;;;;;;11.96;52.46;98303.30;128860;1099;62950;-84
2021/05/06 07:19:48;;;;;;;6.00;3.10;;;;;;;11.88;52.24;98309.30;128855;1099;62126;-84
2021/05/06 07:22:36;;;;;;;4.23;3.37;;;;;;;11.75;53.15;98294.45;128831;1101;62128;-84
2021/05/06 07:25:11;;;;;;;5.50;3.20;;;;;;;11.70;53.17;98312.73;128806;1101;61945;-85
2021/05/06 07:27:46;;;;;;;10.70;4.55;;;;;;;12.08;53.66;98304.84;128899;1098;61944;-84
2021/05/06 07:30:22;;;;;;;5.63;3.10;;;;;;;12.25;50.65;98302.48;128872;1099;63221;-85
2021/05/06 07:32:55;;;;;;;8.50;2.73;;;;;;;12.17;51.68;98306.70;129129;1098;62027;-85
2021/05/06 07:35:36;;;;;;;5.67;2.50;;;;;;;12.26;51.38;98301.49;128819;1099;62076;-84
2021/05/06 07:38:11;;;;;;;6.20;2.70;;;;;;;12.01;49.61;98308.21;128875;1099;61833;-84
2021/05/06 07:41:30;;;;;;;5.33;2.60;;;;;;;11.35;50.02;98312.19;128889;1098;61928;-85
2021/05/06 07:44:11;;;;;;;6.00;2.67;;;;;;;11.19;50.44;98316.31;128829;1098;63751;-84
2021/05/06 07:47:08;;;;;;;7.00;4.03;;;;;;;11.23;50.93;98313.25;128769;1100;62042;-82
2021/05/06 07:49:49;;;;;;;9.43;4.90;;;;;;;11.19;48.22;98316.31;128903;1098;62192;-85
2021/05/06 07:52:41;;;;;;;4.40;3.20;;;;;;;11.44;50.64;98307.85;129161;1098;61876;-83
2021/05/06 07:55:14;;;;;;;6.30;4.83;;;;;;;11.46;50.35;98307.74;128888;1099;62198;-84
2021/05/06 07:57:59;;;;;;;18.63;7.20;;;;;;;11.56;49.11;98312.13;128877;1098;62017;-83
2021/05/06 08:00:42;;;;;;;4.97;2.70;;;;;;;11.62;47.39;98310.74;128801;1099;62444;-81
2021/05/06 08:03:11;;;;;;;;;;;;;;;11.41;48.55;98304.62;128850;1100;62046;-83
2021/05/06 08:05:56;;;;;;;6.33;3.20;;;;;;;11.30;49.84;98309.06;128851;1099;61901;-85
2021/05/06 08:08:57;;;;;;;7.33;2.90;;;;;;;11.59;50.56;98311.88;128816;1100;61914;-84
2021/05/06 08:11:45;;;;;;;7.70;3.07;;;;;;;11.53;50.05;98312.41;129174;1098;63564;-83
2021/05/06 08:14:26;;;;;;;5.50;3.43;;;;;;;11.59;49.85;98300.33;129143;1098;62205;-84
2021/05/06 08:17:06;;;;;;;5.07;2.70;;;;;;;11.74;47.61;98298.96;128910;1098;62035;-83
2021/05/06 08:19:47;;;;;;;3.70;2.57;;;;;;;12.08;48.97;98295.97;128890;1099;62109;-83
2021/05/06 08:22:16;;;;;;;4.00;2.37;;;;;;;12.74;48.75;98290.78;128837;1100;61985;-82
2021/05/06 08:24:55;;;;;;;5.27;2.10;;;;;;;13.07;48.55;98286.77;128846;1098;62973;-84
2021/05/06 08:27:31;;;;;;;7.73;2.70;;;;;;;13.12;47.17;98297.91;128809;1099;62049;-81
2021/05/06 08:30:11;;;;;;;4.50;3.00;;;;;;;12.94;46.44;98291.59;129115;1098;62018;-84
2021/05/06 08:33:11;;;;;;;4.33;2.33;;;;;;;13.00;48.85;98285.66;128879;1098;62097;-85
2021/05/06 08:35:54;;;;;;;5.93;3.50;;;;;;;13.34;47.40;98291.38;129189;1098;61907;-84
2021/05/06 08:38:40;;;;;;;8.80;2.80;;;;;;;13.25;47.15;98278.86;128886;1098;62660;-84
2021/05/06 08:41:26;;;;;;;8.70;3.67;;;;;;;13.40;47.49;98288.11;128836;1099;62187;-85
2021/05/06 08:44:05;;;;;;;7.90;3.20;;;;;;;13.31;47.55;98285.47;128873;1098;62220;-85
2021/05/06 08:46:47;;;;;;;5.50;2.90;;;;;;;12.94;47.91;98288.92;128842;1098;61943;-84
2021/05/06 08:49:20;;;;;;;5.13;2.30;;;;;;;13.11;46.77;98293.55;129145;1098;61993;-83
2021/05/06 08:52:08;;;;;;;9.97;3.07;;;;;;;13.07;47.22;98288.61;128848;1098;63248;-82
2021/05/06 08:54:46;;;;;;;8.00;2.83;;;;;;;12.67;46.45;98295.88;128869;1098;62122;-83
2021/05/06 08:57:28;;;;;;;6.53;3.30;;;;;;;12.40;47.77;98293.03;128862;1098;62076;-84
2021/05/06 09:00:10;;;;;;;9.97;3.70;;;;;;;12.82;48.99;98298.11;128849;1098;62353;-83
2021/05/06 09:03:13;;;;;;;8.17;3.67;;;;;;;13.16;48.79;98296.61;128857;1098;61887;-84
2021/05/06 09:06:26;;;;;;;7.07;3.73;;;;;;;13.24;48.75;98290.58;128868;1099;62798;-86
2021/05/06 09:09:16;;;;;;;8.10;3.50;;;;;;;13.22;47.98;98279.97;128824;1098;62192;-82
2021/05/06 09:12:20;;;;;;;4.77;3.23;;;;;;;13.39;47.77;98289.10;128858;1098;62450;-84
2021/05/06 09:15:53;;;;;;;7.43;3.17;;;;;;;13.64;47.79;98282.22;128785;1098;62150;-83
2021/05/06 09:18:24;;;;;;;5.77;3.03;;;;;;;13.76;46.76;98283.72;128737;1100;62113;-84
2021/05/06 09:20:51;;;;;;;5.10;2.37;;;;;;;14.29;46.62;98272.20;129060;1098;63069;-83
2021/05/06 09:23:32;;;;;;;5.93;2.60;;;;;;;14.73;47.12;98266.07;128783;1099;62156;-84
2021/05/06 09:26:05;;;;;;;15.50;3.20;;;;;;;14.97;46.96;98268.11;128872;1098;62352;-81
2021/05/06 09:28:42;;;;;;;29.87;3.87;;;;;;;15.04;47.00;98263.78;128808;1100;62077;-83
2021/05/06 09:31:22;;;;;;;9.47;2.80;;;;;;;15.55;46.55;98264.73;128859;1099;62007;-82
2021/05/06 09:33:57;;;;;;;4.10;2.77;;;;;;;15.74;45.91;98259.13;128877;1098;62629;-84
2021/05/06 09:36:38;;;;;;;11.50;2.50;;;;;;;15.70;45.11;98248.84;128839;1098;62084;-84
2021/05/06 09:39:12;;;;;;;10.40;3.90;;;;;;;15.00;44.98;98257.02;128861;1098;62300;-83
2021/05/06 09:41:39;;;;;;;4.37;2.70;;;;;;;15.03;46.81;98241.42;128824;1098;61972;-83
2021/05/06 09:44:20;;;;;;;6.57;2.37;;;;;;;15.02;45.93;98250.50;128856;1098;61978;-84
2021/05/06 09:47:14;;;;;;;5.43;3.40;;;;;;;15.12;46.32;98248.53;128863;1099;63091;-84
2021/05/06 09:49:42;;;;;;;5.80;3.10;;;;;;;15.59;46.96;98247.28;129074;1098;62050;-82
2021/05/06 09:52:12;;;;;;;3.87;2.70;;;;;;;15.94;46.00;98244.38;128843;1098;62010;-84
2021/05/06 09:54:52;;;;;;;8.97;3.30;;;;;;;15.85;44.19;98245.38;128850;1098;61980;-84
2021/05/06 09:57:35;;;;;;;10.43;3.30;;;;;;;15.52;44.57;98251.59;128874;1098;61852;-83
2021/05/06 10:00:23;;;;;;;8.40;2.73;;;;;;;15.20;43.18;98252.27;128882;1098;63189;-84
2021/05/06 10:03:08;;;;;;;12.57;3.70;;;;;;;15.14;45.21;98253.73;128815;1098;62030;-84
2021/05/06 10:05:37;;;;;;;5.77;2.60;;;;;;;14.81;43.75;98272.34;128858;1098;62054;-82
2021/05/06 10:08:10;;;;;;;9.60;2.60;;;;;;;14.60;45.26;98269.16;128851;1098;61965;-82
2021/05/06 10:10:57;;;;;;;5.17;2.37;;;;;;;14.27;45.32;98265.30;128861;1099;62007;-83
2021/05/06 10:13:50;;;;;;;6.73;2.57;;;;;;;13.57;44.01;98282.97;128863;1098;62059;-81
2021/05/06 10:16:34;;;;;;;15.73;3.87;;;;;;;12.74;44.62;98314.90;128834;1098;62012;-82
2021/05/06 10:19:16;;;;;;;8.10;2.43;;;;;;;11.91;44.79;98329.61;128829;1100;62076;-82
2021/05/06 10:21:53;;;;;;;7.60;3.73;;;;;;;10.96;48.21;98353.03;128848;1098;61984;-84
2021/05/06 10:24:28;;;;;;;7.67;4.60;;;;;;;9.98;48.93;98371.77;128827;1099;62017;-84
2021/05/06 10:27:13;;;;;;;4.50;3.00;;;;;;;9.48;49.89;98366.84;128882;1098;63114;-82
2021/05/06 10:29:48;;;;;;;3.77;3.20;;;;;;;9.52;50.36;98359.44;128811;1098;62061;-83
2021/05/06 10:32:46;;;;;;;;;;;;;;;9.57;50.61;98351.08;128889;1098;61981;-85
2021/05/06 10:35:34;;;;;;;;;;;;;;;9.66;50.32;98342.34;129148;1098;61946;-83
2021/05/06 10:38:02;;;;;;;4.00;3.13;;;;;;;10.14;50.35;98334.04;128836;1100;62449;-84
2021/05/06 10:40:47;;;;;;;4.73;3.37;;;;;;;10.59;50.25;98328.57;128821;1098;62041;-84
2021/05/06 10:43:31;;;;;;;7.60;3.57;;;;;;;10.83;50.20;98318.50;128784;1098;62032;-84
2021/05/06 10:46:09;;;;;;;7.07;3.83;;;;;;;11.01;49.32;98303.58;128823;1098;62053;-84
2021/05/06 10:49:22;;;;;;;6.90;3.80;;;;;;;11.12;49.99;98307.13;128813;1098;62313;-83
2021/05/06 10:52:10;;;;;;;6.13;3.93;;;;;;;11.36;50.05;98303.19;128756;1101;61986;-82
2021/05/06 10:54:50;;;;;;;5.67;4.00;;;;;;;11.58;50.36;98298.64;128510;1102;63315;-83
2021/05/06 10:57:23;;;;;;;9.13;4.87;;;;;;;11.75;49.83;98297.13;128477;1101;62041;-83
2021/05/06 11:00:03;;;;;;;7.53;3.90;;;;;;;11.72;50.25;98292.91;128762;1101;62001;-82
2021/05/06 11:02:54;;;;;;;5.43;3.00;;;;;;;11.82;49.75;98295.63;128702;1101;62151;-82
2021/05/06 11:05:52;;;;;;;4.67;3.03;;;;;;;12.15;49.49;98294.42;128770;1101;62038;-83
2021/05/06 11:08:27;;;;;;;4.57;3.23;;;;;;;12.33;49.26;98295.43;128521;1101;63070;-83
2021/05/06 11:11:17;;;;;;;6.03;3.00;;;;;;;12.61;49.44;98288.40;128725;1101;62354;-83
2021/05/06 11:14:15;;;;;;;7.53;3.63;;;;;;;13.09;49.57;98282.09;128755;1101;62098;-83
2021/05/06 11:17:24;;;;;;;10.20;3.30;;;;;;;13.09;48.29;98274.06;128525;1101;61981;-83
2021/05/06 11:20:04;;;;;;;4.20;2.87;;;;;;;12.99;49.12;98273.26;128754;1101;62052;-82
2021/05/06 11:22:53;;;;;;;4.63;2.70;;;;;;;13.38;49.46;98257.08;128728;1101;62192;-82
2021/05/06 11:25:56;;;;;;;10.17;2.97;;;;;;;13.69;48.84;98255.80;128535;1101;62613;-82
2021/05/06 11:28:26;;;;;;;2.77;2.00;;;;;;;13.65;48.84;98251.70;128786;1100;61990;-84
2021/05/06 11:31:05;;;;;;;4.87;2.80;;;;;;;13.76;49.20;98246.14;129117;1098;61930;-82
2021/05/06 11:33:38;;;;;;;5.07;3.17;;;;;;;13.96;49.55;98235.28;128885;1100;61986;-82
2021/05/06 11:36:13;;;;;;;5.17;2.53;;;;;;;14.55;48.91;98233.84;128857;1099;62283;-82
2021/05/06 11:38:44;;;;;;;;;;;;;;;14.87;48.91;98230.55;129108;1098;61926;-82
2021/05/06 11:41:37;;;;;;;5.77;2.60;;;;;;;14.77;47.96;98232.52;128865;1098;61990;-83
2021/05/06 11:44:22;;;;;;;4.80;3.07;;;;;;;14.47;47.39;98234.63;128836;1099;62110;-82
2021/05/06 11:46:57;;;;;;;11.53;3.23;;;;;;;14.21;47.24;98229.16;129143;1098;62049;-83
2021/05/06 11:49:44;;;;;;;8.98;3.53;;;;;;;14.43;47.93;98219.77;128789;1100;62054;-83
2021/05/06 11:52:35;;;;;;;8.10;3.70;;;;;;;14.49;47.30;98212.97;128870;1098;62011;-84
2021/05/06 11:55:11;;;;;;;10.57;3.83;;;;;;;14.42;47.63;98215.41;129132;1098;62004;-82
2021/05/06 11:57:50;;;;;;;12.43;3.40;;;;;;;14.39;45.94;98214.89;129141;1098;61934;-83
2021/05/06 12:00:28;;;;;;;10.10;3.83;;;;;;;14.11;47.22;98217.64;128832;1098;61967;-83
2021/05/06 12:03:13;;;;;;;6.43;4.10;;;;;;;13.86;46.92;98227.28;128847;1098;61975;-84
2021/05/06 12:05:56;;;;;;;7.60;3.97;;;;;;;13.86;46.02;98216.55;128809;1100;62253;-84
2021/05/06 12:08:42;;;;;;;10.03;3.23;;;;;;;14.26;47.02;98218.81;129127;1098;62342;-83
2021/05/06 12:11:20;;;;;;;8.73;3.03;;;;;;;14.58;46.25;98220.11;128847;1098;62063;-82
2021/05/06 12:14:00;;;;;;;;;;;;;;;;;;;;;
2021/05/06 12:16:40;;;;;;;8.30;3.00;;;;;;;14.80;46.66;98205.31;129126;1098;62765;-83
2021/05/06 12:19:16;;;;;;;8.03;3.27;;;;;;;14.72;46.80;98205.27;128851;1098;62175;-83
2021/05/06 12:21:43;;;;;;;4.93;2.70;;;;;;;14.46;46.33;98208.77;129090;1098;62169;-83
2021/05/06 12:24:36;;;;;;;6.77;3.47;;;;;;;14.27;46.62;98204.38;128843;1099;61979;-84
2021/05/06 12:27:25;;;;;;;5.77;2.47;;;;;;;14.61;46.87;98198.29;129082;1098;62565;-82
2021/05/06 12:30:16;;;;;;;4.80;2.73;;;;;;;14.69;46.75;98182.22;128783;1101;62775;-83
2021/05/06 12:32:46;;;;;;;6.00;3.40;;;;;;;14.88;46.53;98179.31;128838;1098;61978;-83
2021/05/06 12:35:15;;;;;;;5.17;2.30;;;;;;;15.00;46.49;98176.36;128808;1100;62064;-82
2021/05/06 12:37:44;;;;;;;5.63;2.70;;;;;;;15.09;46.67;98161.97;128852;1100;61997;-82
2021/05/06 12:40:17;;;;;;;8.63;3.57;;;;;;;15.34;44.43;98168.30;128874;1098;62119;-84
2021/05/06 12:42:51;;;;;;;6.30;3.00;;;;;;;15.39;46.56;98174.85;129150;1098;62966;-84
2021/05/06 12:45:18;;;;;;;9.47;3.77;;;;;;;15.60;46.13;98162.84;128846;1098;62024;-83
2021/05/06 12:47:49;;;;;;;4.63;3.07;;;;;;;15.70;45.78;98158.17;129184;1098;62059;-83
2021/05/06 12:50:30;;;;;;;5.30;2.73;;;;;;;15.79;46.30;98159.89;128861;1099;61989;-82
2021/05/06 12:53:07;;;;;;;9.83;2.90;;;;;;;15.88;45.38;98161.58;128914;1098;61836;-82
2021/05/06 12:55:49;;;;;;;6.63;2.57;;;;;;;15.85;45.44;98150.31;128876;1098;63650;-82
2021/05/06 12:58:24;;;;;;;4.17;2.63;;;;;;;15.86;43.88;98157.38;128840;1099;62088;-82
2021/05/06 13:01:12;;;;;;;6.15;4.33;;;;;;;15.65;44.93;98149.77;128880;1098;61960;-82
2021/05/06 13:03:44;;;;;;;8.10;4.97;;;;;;;15.41;45.37;98137.89;129139;1098;61920;-82
2021/05/06 13:06:15;;;;;;;5.40;3.17;;;;;;;15.12;44.58;98148.19;128902;1098;61861;-82
2021/05/06 13:09:22;;;;;;;6.23;3.63;;;;;;;14.78;44.65;98146.34;129134;1098;62649;-82
2021/05/06 13:12:10;;;;;;;9.80;3.23;;;;;;;14.50;45.25;98159.08;128866;1098;61971;-82
2021/05/06 13:15:01;;;;;;;12.63;3.00;;;;;;;13.96;45.06;98155.59;128872;1098;61833;-81
2021/05/06 13:17:33;;;;;;;6.23;3.10;;;;;;;13.36;45.70;98166.05;128873;1100;61856;-83
2021/05/06 13:20:27;;;;;;;6.17;3.83;;;;;;;13.03;46.40;98163.91;128857;1098;61985;-82
2021/05/06 13:23:05;;;;;;;10.00;3.77;;;;;;;12.85;45.20;98167.38;128872;1098;63236;-82
2021/05/06 13:25:52;;;;;;;10.37;2.90;;;;;;;12.69;45.93;98154.59;128874;1098;61960;-82
2021/05/06 13:28:42;;;;;;;11.27;4.00;;;;;;;12.82;45.65;98164.14;128842;1100;62010;-82
2021/05/06 13:31:22;;;;;;;10.60;4.60;;;;;;;12.88;45.67;98159.03;128824;1098;61939;-81
2021/05/06 13:34:19;;;;;;;10.03;4.20;;;;;;;13.04;45.48;98157.55;128893;1098;62001;-82
2021/05/06 13:36:49;;;;;;;8.20;3.67;;;;;;;13.65;44.96;98163.17;128873;1098;62619;-83
2021/05/06 13:39:19;;;;;;;9.97;4.93;;;;;;;14.35;44.98;98149.88;128813;1101;62074;-81
2021/05/06 13:41:47;;;;;;;8.27;3.73;;;;;;;15.05;45.59;98144.47;128815;1098;62375;-81
2021/05/06 13:44:19;;;;;;;8.07;3.50;;;;;;;15.35;44.56;98143.92;128859;1098;61832;-83
2021/05/06 13:46:58;;;;;;;5.63;3.97;;;;;;;15.27;43.89;98143.91;128850;1099;61975;-82
2021/05/06 13:49:43;;;;;;;7.47;3.43;;;;;;;14.80;43.79;98144.33;128863;1098;62970;-82
2021/05/06 13:52:52;;;;;;;8.53;4.10;;;;;;;14.19;43.78;98139.88;129095;1098;61824;-84
2021/05/06 13:55:24;;;;;;;6.23;3.33;;;;;;;13.97;44.78;98146.55;129131;1098;61939;-82
2021/05/06 13:57:55;;;;;;;14.13;7.07;;;;;;;14.24;45.51;98147.44;128875;1098;61820;-82
2021/05/06 14:00:40;;;;;;;6.57;3.10;;;;;;;14.52;44.66;98134.77;129145;1098;61963;-83
2021/05/06 14:03:08;;;;;;;4.77;2.57;;;;;;;14.29;44.03;98135.23;128847;1099;62557;-83
2021/05/06 14:05:47;;;;;;;6.17;3.13;;;;;;;14.00;45.30;98129.31;128837;1099;61876;-81
2021/05/06 14:08:19;;;;;;;4.17;2.63;;;;;;;14.14;45.21;98125.22;129145;1098;62004;-83
2021/05/06 14:10:47;;;;;;;6.05;3.15;;;;;;;14.26;45.40;98114.08;129147;1098;62277;-83
2021/05/06 14:13:16;;;;;;;5.67;2.53;;;;;;;14.42;44.61;98107.95;128896;1098;61950;-83
2021/05/06 14:15:57;;;;;;;;;;;;;;;;;;;;;
2021/05/06 14:18:24;;;;;;;5.57;2.33;;;;;;;14.56;44.39;98103.88;128851;1099;62149;-82
2021/05/06 14:20:53;;;;;;;7.23;2.90;;;;;;;14.62;44.24;98097.87;128849;1098;62250;-83
2021/05/06 14:23:23;;;;;;;8.43;2.90;;;;;;;14.47;44.15;98100.31;128853;1100;62063;-83
2021/05/06 14:25:50;;;;;;;11.13;2.97;;;;;;;14.36;44.68;98097.00;128848;1099;62291;-82
2021/05/06 14:28:30;;;;;;;8.03;2.87;;;;;;;14.17;44.27;98098.89;128837;1099;62918;-82
2021/05/06 14:31:25;;;;;;;10.37;3.33;;;;;;;14.03;44.31;98100.30;129110;1098;62914;-83
2021/05/06 14:34:03;;;;;;;9.07;2.47;;;;;;;13.85;44.85;98098.63;128822;1101;61985;-83
2021/05/06 14:36:30;;;;;;;7.37;2.60;;;;;;;13.73;44.09;98096.17;128858;1098;62003;-83
2021/05/06 14:39:17;;;;;;;4.17;2.50;;;;;;;13.60;44.75;98094.88;128848;1098;62080;-84
2021/05/06 14:41:57;;;;;;;6.40;3.65;;;;;;;13.42;44.31;98090.36;128882;1098;63269;-82
2021/05/06 14:44:30;;;;;;;9.70;4.03;;;;;;;13.25;44.81;98096.53;128830;1098;61911;-83
2021/05/06 14:47:03;;;;;;;7.03;3.90;;;;;;;13.53;45.07;98089.27;128862;1098;61972;-82
2021/05/06 14:49:43;;;;;;;6.47;3.57;;;;;;;13.79;44.38;98083.98;128854;1098;61980;-82
2021/05/06 14:52:21;;;;;;;9.50;3.43;;;;;;;13.69;43.88;98073.34;128843;1098;61947;-82
2021/05/06 14:54:54;;;;;;;7.97;3.70;;;;;;;13.63;44.62;98084.69;128850;1098;63050;-83
2021/05/06 14:57:24;;;;;;;9.73;4.90;;;;;;;13.54;44.05;98082.91;128798;1101;61979;-82
2021/05/06 14:59:51;;;;;;;11.63;5.30;;;;;;;13.51;44.08;98075.19;128867;1098;62061;-82
2021/05/06 15:02:31;;;;;;;12.77;5.93;;;;;;;13.47;43.89;98073.79;128839;1098;62010;-83
2021/05/06 15:05:12;;;;;;;;;;;;;;;;;;;;;
2021/05/06 15:07:47;;;;;;;15.93;5.97;;;;;;;13.59;44.49;98064.52;128798;1101;63264;-83
2021/05/06 15:10:46;;;;;;;;;;;;;;;13.43;44.17;98070.59;128792;1100;62260;-82
2021/05/06 15:13:28;;;;;;;19.63;6.57;;;;;;;13.20;44.34;98072.85;128799;1100;61997;-82
2021/05/06 15:16:01;;;;;;;15.03;6.67;;;;;;;13.11;44.24;98075.58;128886;1098;61941;-83
2021/05/06 15:18:29;;;;;;;10.80;5.50;;;;;;;12.93;44.51;98078.20;129153;1098;62428;-82
2021/05/06 15:20:59;;;;;;;12.37;4.47;;;;;;;12.69;44.53;98078.73;128872;1098;62112;-83
2021/05/06 15:23:29;;;;;;;7.50;3.73;;;;;;;12.66;44.68;98068.30;128838;1099;62016;-83
2021/05/06 15:25:56;;;;;;;14.20;5.53;;;;;;;12.80;44.73;98064.32;128788;1101;61951;-83
2021/05/06 15:28:31;;;;;;;10.20;4.83;;;;;;;12.75;44.47;98070.11;128783;1100;61902;-83
2021/05/06 15:31:02;;;;;;;8.43;5.20;;;;;;;12.74;44.71;98068.43;128888;1098;62016;-83
2021/05/06 15:33:29;;;;;;;9.10;4.43;;;;;;;12.65;45.02;98062.11;128874;1100;61901;-82
2021/05/06 15:35:59;;;;;;;18.17;6.70;;;;;;;12.51;44.93;98064.43;128779;1101;62074;-83
2021/05/06 15:38:30;;;;;;;25.70;11.50;;;;;;;12.37;44.86;98055.05;128775;1101;62002;-83
2021/05/06 15:40:57;;;;;;;14.93;6.90;;;;;;;12.27;44.65;98070.28;128814;1101;61948;-83
2021/05/06 15:43:29;;;;;;;20.47;8.00;;;;;;;12.18;43.81;98046.08;128848;1101;61931;-83
2021/05/06 15:45:56;;;;;;;15.33;6.80;;;;;;;12.16;43.73;98041.88;128795;1101;61984;-83
2021/05/06 15:48:23;;;;;;;9.50;4.80;;;;;;;12.15;44.90;98037.48;128812;1101;62052;-84
2021/05/06 15:51:02;;;;;;;10.07;5.43;;;;;;;12.17;45.05;98044.40;128812;1101;61969;-83
2021/05/06 15:53:34;;;;;;;22.27;11.43;;;;;;;12.18;44.42;98042.56;128822;1101;61898;-83
2021/05/06 15:56:07;;;;;;;16.33;7.47;;;;;;;12.17;44.83;98046.23;128847;1101;62361;-83
2021/05/06 15:58:40;;;;;;;14.10;6.97;;;;;;;12.17;44.14;98041.72;128805;1101;62655;-83
2021/05/06 16:01:08;;;;;;;7.43;4.00;;;;;;;12.09;44.51;98046.96;128798;1101;62405;-82
2021/05/06 16:03:49;;;;;;;7.37;3.90;;;;;;;12.10;44.43;98050.48;128843;1101;61975;-84
2021/05/06 16:06:16;;;;;;;9.93;3.87;;;;;;;12.18;44.56;98032.70;128829;1101;62098;-83
2021/05/06 16:08:50;;;;;;;8.50;5.37;;;;;;;12.16;44.74;98037.36;128843;1101;61867;-84
2021/05/06 16:11:39;;;;;;;16.73;9.07;;;;;;;12.04;44.70;98030.48;128814;1101;61963;-84
2021/05/06 16:14:26;;;;;;;9.23;4.37;;;;;;;11.94;45.38;98039.52;128818;1101;62064;-84
2021/05/06 16:16:53;;;;;;;9.80;4.70;;;;;;;11.91;45.01;98032.63;128804;1101;61996;-84
2021/05/06 16:19:31;;;;;;;12.93;5.40;;;;;;;11.95;45.13;98028.66;128805;1101;62004;-84
2021/05/06 16:21:58;;;;;;;16.27;7.80;;;;;;;11.93;44.77;98032.48;128814;1101;61859;-83
2021/05/06 16:24:42;;;;;;;11.27;6.27;;;;;;;11.94;45.19;98036.84;128795;1101;62972;-84
2021/05/06 16:27:24;;;;;;;10.57;6.07;;;;;;;12.01;45.19;98040.63;128806;1101;61981;-84
2021/05/06 16:30:18;;;;;;;15.07;8.03;;;;;;;12.04;45.46;98030.48;128799;1101;62286;-83